Home > Products > Valid Products > TAF

000
FTUS44 KMOB 281745
TAFMOB
TAF
KMOB 281745Z 2818/2918 36005KT P6SM SCT100
     FM290000 07005KT P6SM SCT100
     FM290900 07005KT P6SM SCT035 SCT100=



000
FTUS44 KMOB 281745
TAFMOB
TAF
KMOB 281745Z 2818/2918 36005KT P6SM SCT100
     FM290000 07005KT P6SM SCT100
     FM290900 07005KT P6SM SCT035 SCT100=



000
FTUS44 KMOB 281745
TAFPNS
TAF
KPNS 281745Z 2818/2918 35008KT P6SM SCT100
     FM290000 01004KT P6SM SCT100
     FM290900 04005KT P6SM SCT035 SCT100=



000
FTUS44 KMOB 281745
TAFPNS
TAF
KPNS 281745Z 2818/2918 35008KT P6SM SCT100
     FM290000 01004KT P6SM SCT100
     FM290900 04005KT P6SM SCT035 SCT100=



000
FTUS44 KMOB 281745
TAFMOB
TAF
KMOB 281745Z 2818/2918 36005KT P6SM SCT100
     FM290000 07005KT P6SM SCT100
     FM290900 07005KT P6SM SCT035 SCT100=



000
FTUS44 KMOB 281745
TAFMOB
TAF
KMOB 281745Z 2818/2918 36005KT P6SM SCT100
     FM290000 07005KT P6SM SCT100
     FM290900 07005KT P6SM SCT035 SCT100=



000
FTUS44 KMOB 281745
TAFPNS
TAF
KPNS 281745Z 2818/2918 35008KT P6SM SCT100
     FM290000 01004KT P6SM SCT100
     FM290900 04005KT P6SM SCT035 SCT100=



000
FTUS44 KMOB 281745
TAFPNS
TAF
KPNS 281745Z 2818/2918 35008KT P6SM SCT100
     FM290000 01004KT P6SM SCT100
     FM290900 04005KT P6SM SCT035 SCT100=



000
FTUS44 KMOB 281148
TAFPNS
TAF
KPNS 281148Z 2812/2912 35006KT P6SM SKC
     FM281500 36006KT P6SM SCT250
     FM290600 08007KT P6SM BKN100=



000
FTUS44 KMOB 281148
TAFMOB
TAF
KMOB 281148Z 2812/2912 01005KT P6SM SKC
     FM281500 04006KT P6SM SCT250
     FM290600 08007KT P6SM BKN100=



000
FTUS44 KMOB 281148
TAFMOB
TAF
KMOB 281148Z 2812/2912 01005KT P6SM SKC
     FM281500 04006KT P6SM SCT250
     FM290600 08007KT P6SM BKN100=



000
FTUS44 KMOB 281148
TAFPNS
TAF
KPNS 281148Z 2812/2912 35006KT P6SM SKC
     FM281500 36006KT P6SM SCT250
     FM290600 08007KT P6SM BKN100=



000
FTUS44 KMOB 281148
TAFMOB
TAF
KMOB 281148Z 2812/2912 01005KT P6SM SKC
     FM281500 04006KT P6SM SCT250
     FM290600 08007KT P6SM BKN100=



000
FTUS44 KMOB 281148
TAFMOB
TAF
KMOB 281148Z 2812/2912 01005KT P6SM SKC
     FM281500 04006KT P6SM SCT250
     FM290600 08007KT P6SM BKN100=



000
FTUS44 KMOB 281148
TAFPNS
TAF
KPNS 281148Z 2812/2912 35006KT P6SM SKC
     FM281500 36006KT P6SM SCT250
     FM290600 08007KT P6SM BKN100=



000
FTUS44 KMOB 281148
TAFPNS
TAF
KPNS 281148Z 2812/2912 35006KT P6SM SKC
     FM281500 36006KT P6SM SCT250
     FM290600 08007KT P6SM BKN100=



000
FTUS44 KMOB 280525
TAFMOB
TAF
KMOB 280525Z 2806/2906 01006KT P6SM SKC
     FM281500 04006KT P6SM SCT250=



000
FTUS44 KMOB 280525
TAFPNS
TAF
KPNS 280525Z 2806/2906 35008KT P6SM SKC
     FM281500 36006KT P6SM SCT250=



000
FTUS44 KMOB 280525
TAFPNS
TAF
KPNS 280525Z 2806/2906 35008KT P6SM SKC
     FM281500 36006KT P6SM SCT250=



000
FTUS44 KMOB 280525
TAFMOB
TAF
KMOB 280525Z 2806/2906 01006KT P6SM SKC
     FM281500 04006KT P6SM SCT250=



000
FTUS44 KMOB 280525
TAFPNS
TAF
KPNS 280525Z 2806/2906 35008KT P6SM SKC
     FM281500 36006KT P6SM SCT250=



000
FTUS44 KMOB 280525
TAFMOB
TAF
KMOB 280525Z 2806/2906 01006KT P6SM SKC
     FM281500 04006KT P6SM SCT250=



000
FTUS44 KMOB 280525
TAFMOB
TAF
KMOB 280525Z 2806/2906 01006KT P6SM SKC
     FM281500 04006KT P6SM SCT250=



000
FTUS44 KMOB 280525
TAFPNS
TAF
KPNS 280525Z 2806/2906 35008KT P6SM SKC
     FM281500 36006KT P6SM SCT250=



000
FTUS44 KMOB 272321
TAFPNS
TAF
KPNS 272321Z 2800/2824 34011G22KT P6SM SKC
     FM280200 33008KT P6SM FEW070
     FM281500 36005KT P6SM SKC=



000
FTUS44 KMOB 272321
TAFMOB
TAF
KMOB 272321Z 2800/2824 31011G19KT P6SM BKN070
     FM280300 35008KT P6SM SCT070
     FM281500 05004KT P6SM SKC=



000
FTUS44 KMOB 272321
TAFPNS
TAF
KPNS 272321Z 2800/2824 34011G22KT P6SM SKC
     FM280200 33008KT P6SM FEW070
     FM281500 36005KT P6SM SKC=



000
FTUS44 KMOB 272321
TAFMOB
TAF
KMOB 272321Z 2800/2824 31011G19KT P6SM BKN070
     FM280300 35008KT P6SM SCT070
     FM281500 05004KT P6SM SKC=



000
FTUS44 KMOB 271730
TAFPNS
TAF
KPNS 271730Z 2718/2818 34012G20KT P6SM SCT250
     FM280100 33009KT P6SM SKC=



000
FTUS44 KMOB 271730
TAFMOB
TAF
KMOB 271730Z 2718/2818 33012G20KT P6SM FEW200
     FM280000 32007KT P6SM SKC=



000
FTUS44 KMOB 271730
TAFMOB
TAF
KMOB 271730Z 2718/2818 33012G20KT P6SM FEW200
     FM280000 32007KT P6SM SKC=



000
FTUS44 KMOB 271730
TAFPNS
TAF
KPNS 271730Z 2718/2818 34012G20KT P6SM SCT250
     FM280100 33009KT P6SM SKC=



000
FTUS44 KMOB 271730
TAFPNS
TAF
KPNS 271730Z 2718/2818 34012G20KT P6SM SCT250
     FM280100 33009KT P6SM SKC=



000
FTUS44 KMOB 271730
TAFMOB
TAF
KMOB 271730Z 2718/2818 33012G20KT P6SM FEW200
     FM280000 32007KT P6SM SKC=



000
FTUS44 KMOB 271730
TAFPNS
TAF
KPNS 271730Z 2718/2818 34012G20KT P6SM SCT250
     FM280100 33009KT P6SM SKC=



000
FTUS44 KMOB 271730
TAFMOB
TAF
KMOB 271730Z 2718/2818 33012G20KT P6SM FEW200
     FM280000 32007KT P6SM SKC=



000
FTUS44 KMOB 271644 AAA
TAFPNS
TAF AMD
KPNS 271644Z 2717/2812 34018G25KT P6SM SCT018
     FM280000 33010KT P6SM SKC
     FM280600 34005KT P6SM SKC=



000
FTUS44 KMOB 271644 AAA
TAFPNS
TAF AMD
KPNS 271644Z 2717/2812 34018G25KT P6SM SCT018
     FM280000 33010KT P6SM SKC
     FM280600 34005KT P6SM SKC=



000
FTUS44 KMOB 271541 AAA
TAFMOB
TAF AMD
KMOB 271541Z 2716/2812 34015G21KT P6SM FEW017 SCT200
     FM272000 31010KT P6SM SKC
     FM280600 34005KT P6SM SKC=



000
FTUS44 KMOB 271541 AAA
TAFMOB
TAF AMD
KMOB 271541Z 2716/2812 34015G21KT P6SM FEW017 SCT200
     FM272000 31010KT P6SM SKC
     FM280600 34005KT P6SM SKC=



000
FTUS44 KMOB 271139
TAFPNS
TAF
KPNS 271139Z 2712/2812 33012KT P6SM BKN013 OVC028
     FM271800 33015KT P6SM SCT030
     FM272000 31010KT P6SM SKC
     FM280600 34005KT P6SM SKC=



000
FTUS44 KMOB 271139
TAFPNS
TAF
KPNS 271139Z 2712/2812 33012KT P6SM BKN013 OVC028
     FM271800 33015KT P6SM SCT030
     FM272000 31010KT P6SM SKC
     FM280600 34005KT P6SM SKC=



000
FTUS44 KMOB 271139
TAFMOB
TAF
KMOB 271139Z 2712/2812 34016G19KT 5SM BR OVC010
     FM271600 34013KT P6SM SCT030
     FM272000 31010KT P6SM SKC
     FM280600 34005KT P6SM SKC=



000
FTUS44 KMOB 271139
TAFMOB
TAF
KMOB 271139Z 2712/2812 34016G19KT 5SM BR OVC010
     FM271600 34013KT P6SM SCT030
     FM272000 31010KT P6SM SKC
     FM280600 34005KT P6SM SKC=



000
FTUS44 KMOB 271139
TAFPNS
TAF
KPNS 271139Z 2712/2812 33012KT P6SM BKN013 OVC028
     FM271800 33015KT P6SM SCT030
     FM272000 31010KT P6SM SKC
     FM280600 34005KT P6SM SKC=



000
FTUS44 KMOB 271139
TAFPNS
TAF
KPNS 271139Z 2712/2812 33012KT P6SM BKN013 OVC028
     FM271800 33015KT P6SM SCT030
     FM272000 31010KT P6SM SKC
     FM280600 34005KT P6SM SKC=



000
FTUS44 KMOB 271139
TAFMOB
TAF
KMOB 271139Z 2712/2812 34016G19KT 5SM BR OVC010
     FM271600 34013KT P6SM SCT030
     FM272000 31010KT P6SM SKC
     FM280600 34005KT P6SM SKC=



000
FTUS44 KMOB 271139
TAFMOB
TAF
KMOB 271139Z 2712/2812 34016G19KT 5SM BR OVC010
     FM271600 34013KT P6SM SCT030
     FM272000 31010KT P6SM SKC
     FM280600 34005KT P6SM SKC=



000
FTUS44 KMOB 270527
TAFPNS
TAF
KPNS 270527Z 2706/2806 29006KT P6SM FEW009 SCT020 BKN029
     FM270800 33011G18KT P6SM SCT007 BKN015
     FM271800 33015G21KT P6SM SCT030=



000
FTUS44 KMOB 270527
TAFMOB
TAF
KMOB 270527Z 2706/2806 27004KT P6SM BKN015 OVC030
     FM270900 33011G18KT P6SM BKN015 OVC030
     FM271600 34013G20KT P6SM SCT030=



000
FTUS44 KMOB 270527
TAFMOB
TAF
KMOB 270527Z 2706/2806 27004KT P6SM BKN015 OVC030
     FM270900 33011G18KT P6SM BKN015 OVC030
     FM271600 34013G20KT P6SM SCT030=



000
FTUS44 KMOB 270527
TAFPNS
TAF
KPNS 270527Z 2706/2806 29006KT P6SM FEW009 SCT020 BKN029
     FM270800 33011G18KT P6SM SCT007 BKN015
     FM271800 33015G21KT P6SM SCT030=



000
FTUS44 KMOB 270230 AAA
TAFPNS
TAF AMD
KPNS 270230Z 2703/2724 24003KT P6SM VCSH SCT060 BKN150
     FM270700 33012G19KT 5SM -DZ BR SCT007 BKN015
     FM271500 33015KT P6SM SCT030=



000
FTUS44 KMOB 270230 AAA
TAFPNS
TAF AMD
KPNS 270230Z 2703/2724 24003KT P6SM VCSH SCT060 BKN150
     FM270700 33012G19KT 5SM -DZ BR SCT007 BKN015
     FM271500 33015KT P6SM SCT030=



000
FTUS44 KMOB 270230 AAA
TAFPNS
TAF AMD
KPNS 270230Z 2703/2724 24003KT P6SM VCSH SCT060 BKN150
     FM270700 33012G19KT 5SM -DZ BR SCT007 BKN015
     FM271500 33015KT P6SM SCT030=



000
FTUS44 KMOB 270230 AAA
TAFPNS
TAF AMD
KPNS 270230Z 2703/2724 24003KT P6SM VCSH SCT060 BKN150
     FM270700 33012G19KT 5SM -DZ BR SCT007 BKN015
     FM271500 33015KT P6SM SCT030=



000
FTUS44 KMOB 270228 AAA
TAFMOB
TAF AMD
KMOB 270228Z 2702/2724 23005KT P6SM VCSH FEW050 SCT090 BKN150
     FM270500 33012G19KT 5SM -DZ BR SCT005 BKN015
     FM271300 34013KT P6SM SCT030=



000
FTUS44 KMOB 270228 AAA
TAFMOB
TAF AMD
KMOB 270228Z 2702/2724 23005KT P6SM VCSH FEW050 SCT090 BKN150
     FM270500 33012G19KT 5SM -DZ BR SCT005 BKN015
     FM271300 34013KT P6SM SCT030=



000
FTUS44 KMOB 270228 AAA
TAFMOB
TAF AMD
KMOB 270228Z 2702/2724 23005KT P6SM VCSH FEW050 SCT090 BKN150
     FM270500 33012G19KT 5SM -DZ BR SCT005 BKN015
     FM271300 34013KT P6SM SCT030=



000
FTUS44 KMOB 262320
TAFPNS
TAF
KPNS 262320Z 2700/2724 15011KT P6SM VCSH FEW010 BKN150 OVC250
      TEMPO 2703/2707 -SHRA OVC007
     FM270700 33012KT 5SM -DZ BR OVC007
     FM271500 33015KT P6SM SCT030=



000
FTUS44 KMOB 262320
TAFPNS
TAF
KPNS 262320Z 2700/2724 15011KT P6SM VCSH FEW010 BKN150 OVC250
      TEMPO 2703/2707 -SHRA OVC007
     FM270700 33012KT 5SM -DZ BR OVC007
     FM271500 33015KT P6SM SCT030=



000
FTUS44 KMOB 262320
TAFMOB
TAF
KMOB 262320Z 2700/2724 21006KT 6SM BR VCSH SCT007 OVC015
      TEMPO 2701/2703 -SHRA
     FM270500 33012KT 5SM -DZ BR OVC005
     FM271300 34013KT P6SM SCT030=



000
FTUS44 KMOB 262320
TAFMOB
TAF
KMOB 262320Z 2700/2724 21006KT 6SM BR VCSH SCT007 OVC015
      TEMPO 2701/2703 -SHRA
     FM270500 33012KT 5SM -DZ BR OVC005
     FM271300 34013KT P6SM SCT030=



000
FTUS44 KMOB 261944 AAA
TAFPNS
TAF AMD
KPNS 261944Z 2620/2718 34004KT P6SM -RA SCT021 BKN050 OVC100
     FM262100 18011KT 6SM -SHRA BKN030 OVC080
      TEMPO 2703/2707 4SM SHRA BKN025
     FM270700 33012KT P6SM BKN010 OVC060
     FM271500 33015KT P6SM SCT030=



000
FTUS44 KMOB 261944 AAA
TAFPNS
TAF AMD
KPNS 261944Z 2620/2718 34004KT P6SM -RA SCT021 BKN050 OVC100
     FM262100 18011KT 6SM -SHRA BKN030 OVC080
      TEMPO 2703/2707 4SM SHRA BKN025
     FM270700 33012KT P6SM BKN010 OVC060
     FM271500 33015KT P6SM SCT030=



000
FTUS44 KMOB 261740
TAFMOB
TAF
KMOB 261740Z 2618/2718 14015KT 4SM -SHRA BR SCT018 OVC090
      TEMPO 2618/2620 VRB15G25KT 3SM TSRA BKN018CB
     FM262100 19010KT 6SM BR VCSH SCT025 OVC080
      TEMPO 2701/2705 4SM SHRA BKN025
     FM270500 33012KT P6SM BKN010 OVC060
     FM271300 34013KT P6SM SCT030=



000
FTUS44 KMOB 261740
TAFMOB
TAF
KMOB 261740Z 2618/2718 14015KT 4SM -SHRA BR SCT018 OVC090
      TEMPO 2618/2620 VRB15G25KT 3SM TSRA BKN018CB
     FM262100 19010KT 6SM BR VCSH SCT025 OVC080
      TEMPO 2701/2705 4SM SHRA BKN025
     FM270500 33012KT P6SM BKN010 OVC060
     FM271300 34013KT P6SM SCT030=



000
FTUS44 KMOB 261740
TAFPNS
TAF
KPNS 261740Z 2618/2718 16016KT 4SM -RA BR BKN009 BKN030 OVC090
      TEMPO 2618/2620 VRB15G25KT 3SM TSRA BKN015CB
     FM262100 18011KT 6SM -SHRA BKN030 OVC080
      TEMPO 2703/2707 4SM SHRA BKN025
     FM270700 33012KT P6SM BKN010 OVC060
     FM271500 33015KT P6SM SCT030=



000
FTUS44 KMOB 261740
TAFPNS
TAF
KPNS 261740Z 2618/2718 16016KT 4SM -RA BR BKN009 BKN030 OVC090
      TEMPO 2618/2620 VRB15G25KT 3SM TSRA BKN015CB
     FM262100 18011KT 6SM -SHRA BKN030 OVC080
      TEMPO 2703/2707 4SM SHRA BKN025
     FM270700 33012KT P6SM BKN010 OVC060
     FM271500 33015KT P6SM SCT030=



000
FTUS44 KMOB 261740
TAFPNS
TAF
KPNS 261740Z 2618/2718 16016KT 4SM -RA BR BKN009 BKN030 OVC090
      TEMPO 2618/2620 VRB15G25KT 3SM TSRA BKN015CB
     FM262100 18011KT 6SM -SHRA BKN030 OVC080
      TEMPO 2703/2707 4SM SHRA BKN025
     FM270700 33012KT P6SM BKN010 OVC060
     FM271500 33015KT P6SM SCT030=



000
FTUS44 KMOB 261740
TAFMOB
TAF
KMOB 261740Z 2618/2718 14015KT 4SM -SHRA BR SCT018 OVC090
      TEMPO 2618/2620 VRB15G25KT 3SM TSRA BKN018CB
     FM262100 19010KT 6SM BR VCSH SCT025 OVC080
      TEMPO 2701/2705 4SM SHRA BKN025
     FM270500 33012KT P6SM BKN010 OVC060
     FM271300 34013KT P6SM SCT030=



000
FTUS44 KMOB 261740
TAFPNS
TAF
KPNS 261740Z 2618/2718 16016KT 4SM -RA BR BKN009 BKN030 OVC090
      TEMPO 2618/2620 VRB15G25KT 3SM TSRA BKN015CB
     FM262100 18011KT 6SM -SHRA BKN030 OVC080
      TEMPO 2703/2707 4SM SHRA BKN025
     FM270700 33012KT P6SM BKN010 OVC060
     FM271500 33015KT P6SM SCT030=



000
FTUS44 KMOB 261740
TAFMOB
TAF
KMOB 261740Z 2618/2718 14015KT 4SM -SHRA BR SCT018 OVC090
      TEMPO 2618/2620 VRB15G25KT 3SM TSRA BKN018CB
     FM262100 19010KT 6SM BR VCSH SCT025 OVC080
      TEMPO 2701/2705 4SM SHRA BKN025
     FM270500 33012KT P6SM BKN010 OVC060
     FM271300 34013KT P6SM SCT030=



000
FTUS44 KMOB 261534 AAB
TAFPNS
TAF AMD
KPNS 261534Z 2616/2712 09005KT 6SM SHRA BR BKN007 OVC018
      TEMPO 2617/2621 VRB15G25KT 3SM -TSRA SCT007 BKN018CB
     FM262200 22005KT 4SM -TSRA OVC015CB
     FM270600 30007KT 5SM BR OVC007=



000
FTUS44 KMOB 261534 AAB
TAFPNS
TAF AMD
KPNS 261534Z 2616/2712 09005KT 6SM SHRA BR BKN007 OVC018
      TEMPO 2617/2621 VRB15G25KT 3SM -TSRA SCT007 BKN018CB
     FM262200 22005KT 4SM -TSRA OVC015CB
     FM270600 30007KT 5SM BR OVC007=



000
FTUS44 KMOB 261518 AAB
TAFMOB
TAF AMD
KMOB 261518Z 2615/2712 12005KT P6SM VCSH FEW050 SCT090 OVC200
     FM261700 20010KT 6SM SHRA BKN020 OVC050
      TEMPO 2618/2622 VRB15G25KT 3SM -TSRA BKN015CB
     FM262200 19006KT 3SM -TSRA OVC015CB
     FM270500 34011KT 5SM BR OVC007=



000
FTUS44 KMOB 261518 AAB
TAFMOB
TAF AMD
KMOB 261518Z 2615/2712 12005KT P6SM VCSH FEW050 SCT090 OVC200
     FM261700 20010KT 6SM SHRA BKN020 OVC050
      TEMPO 2618/2622 VRB15G25KT 3SM -TSRA BKN015CB
     FM262200 19006KT 3SM -TSRA OVC015CB
     FM270500 34011KT 5SM BR OVC007=



000
FTUS44 KMOB 261413 AAA
TAFPNS
TAF AMD
KPNS 261413Z 2614/2712 08005KT P6SM VCSH BKN006
     FM261600 13006KT P6SM VCTS BKN007 OVC015CB
      TEMPO 2618/2622 VRB15G25KT 3SM -TSRA
     FM262200 22005KT 4SM -TSRA OVC015CB
     FM270600 30007KT 5SM BR OVC007=



000
FTUS44 KMOB 261413 AAA
TAFPNS
TAF AMD
KPNS 261413Z 2614/2712 08005KT P6SM VCSH BKN006
     FM261600 13006KT P6SM VCTS BKN007 OVC015CB
      TEMPO 2618/2622 VRB15G25KT 3SM -TSRA
     FM262200 22005KT 4SM -TSRA OVC015CB
     FM270600 30007KT 5SM BR OVC007=



000
FTUS44 KMOB 261138
TAFPNS
TAF
KPNS 261138Z 2612/2712 10003KT P6SM FEW007 SCT019 SCT023
     FM261500 18008KT P6SM VCTS BKN007 OVC015CB
      TEMPO 2618/2622 VRB15G25KT 3SM -TSRA
     FM262200 22005KT 4SM -TSRA OVC015CB
     FM270600 30007KT 5SM BR OVC007=



000
FTUS44 KMOB 261138
TAFMOB
TAF
KMOB 261138Z 2612/2712 08004KT 5SM BR SCT020 BKN060 BKN250
     FM261500 18005KT P6SM VCTS BKN005 OVC015CB
      TEMPO 2618/2622 VRB15G25KT 3SM -TSRA
     FM262200 19006KT 3SM -TSRA OVC015CB
     FM270500 34011KT 5SM BR OVC007=



000
FTUS44 KMOB 261138
TAFPNS
TAF
KPNS 261138Z 2612/2712 10003KT P6SM FEW007 SCT019 SCT023
     FM261500 18008KT P6SM VCTS BKN007 OVC015CB
      TEMPO 2618/2622 VRB15G25KT 3SM -TSRA
     FM262200 22005KT 4SM -TSRA OVC015CB
     FM270600 30007KT 5SM BR OVC007=



000
FTUS44 KMOB 261138
TAFPNS
TAF
KPNS 261138Z 2612/2712 10003KT P6SM FEW007 SCT019 SCT023
     FM261500 18008KT P6SM VCTS BKN007 OVC015CB
      TEMPO 2618/2622 VRB15G25KT 3SM -TSRA
     FM262200 22005KT 4SM -TSRA OVC015CB
     FM270600 30007KT 5SM BR OVC007=



000
FTUS44 KMOB 261138
TAFPNS
TAF
KPNS 261138Z 2612/2712 10003KT P6SM FEW007 SCT019 SCT023
     FM261500 18008KT P6SM VCTS BKN007 OVC015CB
      TEMPO 2618/2622 VRB15G25KT 3SM -TSRA
     FM262200 22005KT 4SM -TSRA OVC015CB
     FM270600 30007KT 5SM BR OVC007=



000
FTUS44 KMOB 261138
TAFMOB
TAF
KMOB 261138Z 2612/2712 08004KT 5SM BR SCT020 BKN060 BKN250
     FM261500 18005KT P6SM VCTS BKN005 OVC015CB
      TEMPO 2618/2622 VRB15G25KT 3SM -TSRA
     FM262200 19006KT 3SM -TSRA OVC015CB
     FM270500 34011KT 5SM BR OVC007=



000
FTUS44 KMOB 261138
TAFMOB
TAF
KMOB 261138Z 2612/2712 08004KT 5SM BR SCT020 BKN060 BKN250
     FM261500 18005KT P6SM VCTS BKN005 OVC015CB
      TEMPO 2618/2622 VRB15G25KT 3SM -TSRA
     FM262200 19006KT 3SM -TSRA OVC015CB
     FM270500 34011KT 5SM BR OVC007=



000
FTUS44 KMOB 261138
TAFMOB
TAF
KMOB 261138Z 2612/2712 08004KT 5SM BR SCT020 BKN060 BKN250
     FM261500 18005KT P6SM VCTS BKN005 OVC015CB
      TEMPO 2618/2622 VRB15G25KT 3SM -TSRA
     FM262200 19006KT 3SM -TSRA OVC015CB
     FM270500 34011KT 5SM BR OVC007=



000
FTUS44 KMOB 260536
TAFMOB
TAF
KMOB 260536Z 2606/2706 16006KT P6SM SCT003
      TEMPO 2607/2611 1SM BR OVC003
     FM261100 16003KT 4SM -SHRA BR OVC004
     FM261500 18005KT P6SM VCTS BKN005 OVC015CB
      TEMPO 2618/2622 VRB15G25KT 3SM -TSRA=



000
FTUS44 KMOB 260536
TAFPNS
TAF
KPNS 260536Z 2606/2706 17007KT P6SM SKC
     FM260900 16004KT 4SM BR OVC007
     FM261500 18008KT P6SM VCTS BKN007 OVC015CB
      TEMPO 2618/2622 VRB15G25KT 3SM -TSRA=



000
FTUS44 KMOB 260536
TAFMOB
TAF
KMOB 260536Z 2606/2706 16006KT P6SM SCT003
      TEMPO 2607/2611 1SM BR OVC003
     FM261100 16003KT 4SM -SHRA BR OVC004
     FM261500 18005KT P6SM VCTS BKN005 OVC015CB
      TEMPO 2618/2622 VRB15G25KT 3SM -TSRA=



000
FTUS44 KMOB 260536
TAFPNS
TAF
KPNS 260536Z 2606/2706 17007KT P6SM SKC
     FM260900 16004KT 4SM BR OVC007
     FM261500 18008KT P6SM VCTS BKN007 OVC015CB
      TEMPO 2618/2622 VRB15G25KT 3SM -TSRA=



000
FTUS44 KMOB 260335 AAA
TAFPNS
TAF AMD
KPNS 260335Z 2604/2624 15008KT P6SM BKN005 OVC010
     FM260800 16004KT 2SM BR OVC007
     FM261500 18008KT 4SM BR OVC015=



000
FTUS44 KMOB 260335 AAA
TAFPNS
TAF AMD
KPNS 260335Z 2604/2624 15008KT P6SM BKN005 OVC010
     FM260800 16004KT 2SM BR OVC007
     FM261500 18008KT 4SM BR OVC015=



000
FTUS44 KMOB 260334 AAB
TAFMOB
TAF AMD
KMOB 260334Z 2604/2624 16005KT 6SM BR BKN004 OVC010
     FM260600 17002KT 5SM BR OVC004
      TEMPO 2608/2612 1SM BR
     FM261500 18005KT 4SM -TSRA BR OVC007CB=



000
FTUS44 KMOB 260334 AAB
TAFMOB
TAF AMD
KMOB 260334Z 2604/2624 16005KT 6SM BR BKN004 OVC010
     FM260600 17002KT 5SM BR OVC004
      TEMPO 2608/2612 1SM BR
     FM261500 18005KT 4SM -TSRA BR OVC007CB=



000
FTUS44 KMOB 260334 AAB
TAFMOB
TAF AMD
KMOB 260334Z 2604/2624 16005KT 6SM BR BKN004 OVC010
     FM260600 17002KT 5SM BR OVC004
      TEMPO 2608/2612 1SM BR
     FM261500 18005KT 4SM -TSRA BR OVC007CB=



000
FTUS44 KMOB 260030 CCA
TAFPNS
TAF COR
KPNS 260030Z 2601/2624 15008KT P6SM FEW008 BKN060
     FM260800 16004KT 2SM BR OVC007
     FM261500 18008KT 4SM BR OVC015=



000
FTUS44 KMOB 260030 CCA
TAFPNS
TAF COR
KPNS 260030Z 2601/2624 15008KT P6SM FEW008 BKN060
     FM260800 16004KT 2SM BR OVC007
     FM261500 18008KT 4SM BR OVC015=



000
FTUS44 KMOB 260030 CCA
TAFPNS
TAF COR
KPNS 260030Z 2601/2624 15008KT P6SM FEW008 BKN060
     FM260800 16004KT 2SM BR OVC007
     FM261500 18008KT 4SM BR OVC015=



000
FTUS44 KMOB 260030 CCA
TAFPNS
TAF COR
KPNS 260030Z 2601/2624 15008KT P6SM FEW008 BKN060
     FM260800 16004KT 2SM BR OVC007
     FM261500 18008KT 4SM BR OVC015=



000
FTUS44 KMOB 260029 CCA
TAFMOB
TAF COR
KMOB 260029Z 2600/2624 14007KT P6SM FEW035 BKN150
     FM260800 17002KT 1SM BR OVC004
     FM261500 18005KT 4SM -TSRA BR OVC007CB=



000
FTUS44 KMOB 260029 CCA
TAFMOB
TAF COR
KMOB 260029Z 2600/2624 14007KT P6SM FEW035 BKN150
     FM260800 17002KT 1SM BR OVC004
     FM261500 18005KT 4SM -TSRA BR OVC007CB=



000
FTUS44 KMOB 260029 CCA
TAFMOB
TAF COR
KMOB 260029Z 2600/2624 14007KT P6SM FEW035 BKN150
     FM260800 17002KT 1SM BR OVC004
     FM261500 18005KT 4SM -TSRA BR OVC007CB=



000
FTUS44 KMOB 260029 CCA
TAFMOB
TAF COR
KMOB 260029Z 2600/2624 14007KT P6SM FEW035 BKN150
     FM260800 17002KT 1SM BR OVC004
     FM261500 18005KT 4SM -TSRA BR OVC007CB=



000
FTUS44 KMOB 252328
TAFPNS
TAF
KPNS 252328Z 2600/2624 15008KT P6SM FEW010 SCT060 OVC250
     FM260100 15004KT 5SM BR SCT007 BKN100
     FM260800 16004KT 2SM BR OVC007
     FM261500 18008KT 4SM BR OVC015=



000
FTUS44 KMOB 252328
TAFPNS
TAF
KPNS 252328Z 2600/2624 15008KT P6SM FEW010 SCT060 OVC250
     FM260100 15004KT 5SM BR SCT007 BKN100
     FM260800 16004KT 2SM BR OVC007
     FM261500 18008KT 4SM BR OVC015=



000
FTUS44 KMOB 252328
TAFMOB
TAF
KMOB 252328Z 2600/2624 16008KT P6SM SCT025 OVC250
     FM260100 16003KT 5SM BR SCT007
     FM260800 17002KT 1SM BR OVC004
     FM261500 18005KT 4SM -TSRA BR OVC007CB=



000
FTUS44 KMOB 252328
TAFMOB
TAF
KMOB 252328Z 2600/2624 16008KT P6SM SCT025 OVC250
     FM260100 16003KT 5SM BR SCT007
     FM260800 17002KT 1SM BR OVC004
     FM261500 18005KT 4SM -TSRA BR OVC007CB=



    US Dept of Commerce
    National Oceanic and Atmospheric Administration
    National Weather Service
    1325 East West Highway
    Silver Spring, MD 20910
    Page Author: NWS Internet Services Team
Disclaimer
Information Quality
Credits
Glossary
Privacy Policy
Freedom of Information Act (FOIA)
About Us
Career Opportunities